sensor_id;sensor_type;location;lat;lon;timestamp;P1;durP1;ratioP1;P2;durP2;ratioP2
14074;SDS011;12831;52.392;13.066;2024-03-07T00:01:36;62.85;;;30.67;;
14074;SDS011;12831;52.392;13.066;2024-03-07T00:04:02;67.68;;;32.75;;
14074;SDS011;12831;52.392;13.066;2024-03-07T00:06:28;72.43;;;29.27;;
14074;SDS011;12831;52.392;13.066;2024-03-07T00:08:54;65.57;;;29.70;;
14074;SDS011;12831;52.392;13.066;2024-03-07T00:11:20;81.13;;;34.35;;
14074;SDS011;12831;52.392;13.066;2024-03-07T00:13:46;80.80;;;36.45;;
14074;SDS011;12831;52.392;13.066;2024-03-07T00:16:12;77.78;;;35.20;;
14074;SDS011;12831;52.392;13.066;2024-03-07T00:18:38;78.35;;;36.28;;
14074;SDS011;12831;52.392;13.066;2024-03-07T00:21:04;78.82;;;35.17;;
14074;SDS011;12831;52.392;13.066;2024-03-07T00:23:30;82.22;;;36.42;;
14074;SDS011;12831;52.392;13.066;2024-03-07T00:25:57;81.03;;;36.38;;
14074;SDS011;12831;52.392;13.066;2024-03-07T00:28:23;85.40;;;37.28;;
14074;SDS011;12831;52.392;13.066;2024-03-07T00:30:49;76.88;;;33.35;;
14074;SDS011;12831;52.392;13.066;2024-03-07T00:33:15;82.05;;;35.80;;
14074;SDS011;12831;52.392;13.066;2024-03-07T00:35:41;84.68;;;31.75;;
14074;SDS011;12831;52.392;13.066;2024-03-07T00:38:10;82.28;;;37.78;;
14074;SDS011;12831;52.392;13.066;2024-03-07T00:40:36;89.38;;;34.42;;
14074;SDS011;12831;52.392;13.066;2024-03-07T00:43:02;76.90;;;33.22;;
14074;SDS011;12831;52.392;13.066;2024-03-07T00:45:28;76.78;;;35.20;;
14074;SDS011;12831;52.392;13.066;2024-03-07T00:47:54;85.63;;;36.83;;
14074;SDS011;12831;52.392;13.066;2024-03-07T00:50:19;90.15;;;35.90;;
14074;SDS011;12831;52.392;13.066;2024-03-07T00:52:45;82.50;;;35.38;;
14074;SDS011;12831;52.392;13.066;2024-03-07T00:55:11;82.50;;;33.55;;
14074;SDS011;12831;52.392;13.066;2024-03-07T00:57:37;86.03;;;36.25;;
14074;SDS011;12831;52.392;13.066;2024-03-07T01:00:03;89.15;;;34.55;;
14074;SDS011;12831;52.392;13.066;2024-03-07T01:02:30;92.65;;;36.95;;
14074;SDS011;12831;52.392;13.066;2024-03-07T01:04:56;83.38;;;34.13;;
14074;SDS011;12831;52.392;13.066;2024-03-07T01:07:22;75.95;;;29.80;;
14074;SDS011;12831;52.392;13.066;2024-03-07T01:09:49;89.38;;;37.05;;
14074;SDS011;12831;52.392;13.066;2024-03-07T01:12:15;85.43;;;35.58;;
14074;SDS011;12831;52.392;13.066;2024-03-07T01:14:41;84.70;;;36.08;;
14074;SDS011;12831;52.392;13.066;2024-03-07T01:17:07;94.38;;;36.80;;
14074;SDS011;12831;52.392;13.066;2024-03-07T01:19:34;89.03;;;36.47;;
14074;SDS011;12831;52.392;13.066;2024-03-07T01:22:00;88.07;;;36.20;;
14074;SDS011;12831;52.392;13.066;2024-03-07T01:24:26;95.07;;;38.80;;
14074;SDS011;12831;52.392;13.066;2024-03-07T01:26:52;89.80;;;37.30;;
14074;SDS011;12831;52.392;13.066;2024-03-07T01:29:18;94.13;;;37.35;;
14074;SDS011;12831;52.392;13.066;2024-03-07T01:31:44;91.55;;;38.97;;
14074;SDS011;12831;52.392;13.066;2024-03-07T01:34:10;100.55;;;39.15;;
14074;SDS011;12831;52.392;13.066;2024-03-07T01:36:36;90.68;;;35.85;;
14074;SDS011;12831;52.392;13.066;2024-03-07T01:39:02;88.63;;;35.60;;
14074;SDS011;12831;52.392;13.066;2024-03-07T01:41:29;88.82;;;37.55;;
14074;SDS011;12831;52.392;13.066;2024-03-07T01:43:55;87.53;;;35.40;;
14074;SDS011;12831;52.392;13.066;2024-03-07T01:46:21;86.65;;;36.67;;
14074;SDS011;12831;52.392;13.066;2024-03-07T01:48:46;89.75;;;36.90;;
14074;SDS011;12831;52.392;13.066;2024-03-07T01:51:14;84.88;;;32.55;;
14074;SDS011;12831;52.392;13.066;2024-03-07T01:53:40;88.82;;;36.20;;
14074;SDS011;12831;52.392;13.066;2024-03-07T01:56:06;89.47;;;40.60;;
14074;SDS011;12831;52.392;13.066;2024-03-07T01:58:32;88.47;;;35.33;;
14074;SDS011;12831;52.392;13.066;2024-03-07T02:00:59;88.10;;;37.67;;
14074;SDS011;12831;52.392;13.066;2024-03-07T02:03:25;83.43;;;35.50;;
14074;SDS011;12831;52.392;13.066;2024-03-07T02:05:51;87.13;;;35.70;;
14074;SDS011;12831;52.392;13.066;2024-03-07T02:08:18;93.15;;;35.83;;
14074;SDS011;12831;52.392;13.066;2024-03-07T02:10:45;79.80;;;31.98;;
14074;SDS011;12831;52.392;13.066;2024-03-07T02:13:11;100.75;;;40.08;;
14074;SDS011;12831;52.392;13.066;2024-03-07T02:15:37;82.03;;;33.65;;
14074;SDS011;12831;52.392;13.066;2024-03-07T02:18:03;95.95;;;37.67;;
14074;SDS011;12831;52.392;13.066;2024-03-07T02:20:29;92.03;;;38.38;;
14074;SDS011;12831;52.392;13.066;2024-03-07T02:22:55;88.28;;;35.10;;
14074;SDS011;12831;52.392;13.066;2024-03-07T02:25:22;89.97;;;35.05;;
14074;SDS011;12831;52.392;13.066;2024-03-07T02:27:47;90.43;;;36.08;;
14074;SDS011;12831;52.392;13.066;2024-03-07T02:30:14;79.72;;;35.33;;
14074;SDS011;12831;52.392;13.066;2024-03-07T02:32:40;80.22;;;33.38;;
14074;SDS011;12831;52.392;13.066;2024-03-07T02:35:06;76.65;;;32.70;;
14074;SDS011;12831;52.392;13.066;2024-03-07T02:37:33;81.00;;;31.25;;
14074;SDS011;12831;52.392;13.066;2024-03-07T02:40:08;76.22;;;30.58;;
14074;SDS011;12831;52.392;13.066;2024-03-07T02:42:34;62.22;;;27.83;;
14074;SDS011;12831;52.392;13.066;2024-03-07T02:45:01;64.93;;;28.73;;
14074;SDS011;12831;52.392;13.066;2024-03-07T02:47:27;66.03;;;27.38;;
14074;SDS011;12831;52.392;13.066;2024-03-07T02:49:55;71.18;;;30.30;;
14074;SDS011;12831;52.392;13.066;2024-03-07T02:52:21;68.00;;;32.05;;
14074;SDS011;12831;52.392;13.066;2024-03-07T02:54:47;75.35;;;29.90;;
14074;SDS011;12831;52.392;13.066;2024-03-07T02:57:13;65.90;;;27.73;;
14074;SDS011;12831;52.392;13.066;2024-03-07T02:59:39;70.95;;;30.02;;
14074;SDS011;12831;52.392;13.066;2024-03-07T03:02:05;65.78;;;30.10;;
14074;SDS011;12831;52.392;13.066;2024-03-07T03:04:31;67.97;;;27.38;;
14074;SDS011;12831;52.392;13.066;2024-03-07T03:06:57;59.92;;;26.80;;
14074;SDS011;12831;52.392;13.066;2024-03-07T03:09:23;65.80;;;23.95;;
14074;SDS011;12831;52.392;13.066;2024-03-07T03:11:49;72.80;;;30.35;;
14074;SDS011;12831;52.392;13.066;2024-03-07T03:14:15;63.33;;;29.80;;
14074;SDS011;12831;52.392;13.066;2024-03-07T03:16:42;67.35;;;28.10;;
14074;SDS011;12831;52.392;13.066;2024-03-07T03:19:14;56.67;;;25.55;;
14074;SDS011;12831;52.392;13.066;2024-03-07T03:21:40;73.15;;;29.88;;
14074;SDS011;12831;52.392;13.066;2024-03-07T03:24:06;57.15;;;29.55;;
14074;SDS011;12831;52.392;13.066;2024-03-07T03:26:33;68.15;;;29.52;;
14074;SDS011;12831;52.392;13.066;2024-03-07T03:28:58;65.00;;;31.17;;
14074;SDS011;12831;52.392;13.066;2024-03-07T03:31:25;58.72;;;29.20;;
14074;SDS011;12831;52.392;13.066;2024-03-07T03:33:50;65.88;;;26.98;;
14074;SDS011;12831;52.392;13.066;2024-03-07T03:36:17;65.80;;;30.42;;
14074;SDS011;12831;52.392;13.066;2024-03-07T03:38:44;72.63;;;31.00;;
14074;SDS011;12831;52.392;13.066;2024-03-07T03:41:14;65.82;;;29.02;;
14074;SDS011;12831;52.392;13.066;2024-03-07T03:43:40;61.60;;;29.25;;
14074;SDS011;12831;52.392;13.066;2024-03-07T03:46:09;64.18;;;30.70;;
14074;SDS011;12831;52.392;13.066;2024-03-07T03:48:36;69.97;;;24.77;;
14074;SDS011;12831;52.392;13.066;2024-03-07T03:51:03;69.72;;;27.92;;
14074;SDS011;12831;52.392;13.066;2024-03-07T03:53:29;53.53;;;25.48;;
14074;SDS011;12831;52.392;13.066;2024-03-07T03:55:55;62.70;;;28.98;;
14074;SDS011;12831;52.392;13.066;2024-03-07T03:58:22;57.92;;;27.52;;
14074;SDS011;12831;52.392;13.066;2024-03-07T04:00:48;57.33;;;26.85;;
14074;SDS011;12831;52.392;13.066;2024-03-07T04:03:14;59.67;;;26.27;;
14074;SDS011;12831;52.392;13.066;2024-03-07T04:05:40;61.33;;;28.67;;
14074;SDS011;12831;52.392;13.066;2024-03-07T04:08:08;56.22;;;24.08;;
14074;SDS011;12831;52.392;13.066;2024-03-07T04:10:40;62.58;;;26.02;;
14074;SDS011;12831;52.392;13.066;2024-03-07T04:13:06;47.05;;;22.02;;
14074;SDS011;12831;52.392;13.066;2024-03-07T04:15:33;61.17;;;30.58;;
14074;SDS011;12831;52.392;13.066;2024-03-07T04:18:02;58.83;;;26.75;;
14074;SDS011;12831;52.392;13.066;2024-03-07T04:20:28;50.88;;;27.00;;
14074;SDS011;12831;52.392;13.066;2024-03-07T04:22:54;57.72;;;28.40;;
14074;SDS011;12831;52.392;13.066;2024-03-07T04:25:21;56.45;;;30.38;;
14074;SDS011;12831;52.392;13.066;2024-03-07T04:27:47;61.08;;;30.10;;
14074;SDS011;12831;52.392;13.066;2024-03-07T04:30:15;73.90;;;29.58;;
14074;SDS011;12831;52.392;13.066;2024-03-07T04:32:42;63.55;;;29.30;;
14074;SDS011;12831;52.392;13.066;2024-03-07T04:35:08;69.65;;;28.45;;
14074;SDS011;12831;52.392;13.066;2024-03-07T04:37:39;59.05;;;27.38;;
14074;SDS011;12831;52.392;13.066;2024-03-07T04:42:56;60.03;;;29.20;;
14074;SDS011;12831;52.392;13.066;2024-03-07T04:45:22;65.57;;;31.08;;
14074;SDS011;12831;52.392;13.066;2024-03-07T04:47:48;63.90;;;28.27;;
14074;SDS011;12831;52.392;13.066;2024-03-07T04:50:15;63.70;;;31.40;;
14074;SDS011;12831;52.392;13.066;2024-03-07T04:52:43;63.78;;;28.45;;
14074;SDS011;12831;52.392;13.066;2024-03-07T04:55:09;53.35;;;26.88;;
14074;SDS011;12831;52.392;13.066;2024-03-07T04:57:39;55.53;;;28.80;;
14074;SDS011;12831;52.392;13.066;2024-03-07T05:00:07;49.08;;;28.10;;
14074;SDS011;12831;52.392;13.066;2024-03-07T05:02:33;47.50;;;24.35;;
14074;SDS011;12831;52.392;13.066;2024-03-07T05:04:59;63.17;;;27.92;;
14074;SDS011;12831;52.392;13.066;2024-03-07T05:07:25;53.15;;;28.75;;
14074;SDS011;12831;52.392;13.066;2024-03-07T05:09:55;48.83;;;27.08;;
14074;SDS011;12831;52.392;13.066;2024-03-07T05:12:21;45.90;;;25.00;;
14074;SDS011;12831;52.392;13.066;2024-03-07T05:14:47;52.88;;;26.05;;
14074;SDS011;12831;52.392;13.066;2024-03-07T05:17:13;55.15;;;26.60;;
14074;SDS011;12831;52.392;13.066;2024-03-07T05:19:39;46.83;;;25.08;;
14074;SDS011;12831;52.392;13.066;2024-03-07T05:22:05;51.00;;;29.30;;
14074;SDS011;12831;52.392;13.066;2024-03-07T05:24:31;52.45;;;27.30;;
14074;SDS011;12831;52.392;13.066;2024-03-07T05:29:55;52.15;;;25.85;;
14074;SDS011;12831;52.392;13.066;2024-03-07T05:32:24;46.65;;;24.98;;
14074;SDS011;12831;52.392;13.066;2024-03-07T05:34:51;51.13;;;26.65;;
14074;SDS011;12831;52.392;13.066;2024-03-07T05:37:20;52.28;;;25.60;;
14074;SDS011;12831;52.392;13.066;2024-03-07T05:39:55;51.00;;;27.17;;
14074;SDS011;12831;52.392;13.066;2024-03-07T05:42:21;45.55;;;24.38;;
14074;SDS011;12831;52.392;13.066;2024-03-07T05:44:47;59.35;;;27.13;;
14074;SDS011;12831;52.392;13.066;2024-03-07T05:47:14;49.70;;;27.17;;
14074;SDS011;12831;52.392;13.066;2024-03-07T05:49:48;50.60;;;27.42;;
14074;SDS011;12831;52.392;13.066;2024-03-07T05:52:16;59.20;;;29.65;;
14074;SDS011;12831;52.392;13.066;2024-03-07T05:54:45;53.03;;;28.95;;
14074;SDS011;12831;52.392;13.066;2024-03-07T05:57:25;61.35;;;25.55;;
14074;SDS011;12831;52.392;13.066;2024-03-07T05:59:52;49.20;;;26.23;;
14074;SDS011;12831;52.392;13.066;2024-03-07T06:02:24;51.03;;;27.35;;
14074;SDS011;12831;52.392;13.066;2024-03-07T06:04:51;47.55;;;26.70;;
14074;SDS011;12831;52.392;13.066;2024-03-07T06:07:18;47.58;;;25.73;;
14074;SDS011;12831;52.392;13.066;2024-03-07T06:10:03;58.78;;;28.80;;
14074;SDS011;12831;52.392;13.066;2024-03-07T06:12:35;54.25;;;26.35;;
14074;SDS011;12831;52.392;13.066;2024-03-07T06:15:09;49.33;;;25.75;;
14074;SDS011;12831;52.392;13.066;2024-03-07T06:17:38;52.05;;;24.55;;
14074;SDS011;12831;52.392;13.066;2024-03-07T06:20:16;57.72;;;28.60;;
14074;SDS011;12831;52.392;13.066;2024-03-07T06:22:49;51.60;;;26.33;;
14074;SDS011;12831;52.392;13.066;2024-03-07T06:25:32;48.35;;;24.60;;
14074;SDS011;12831;52.392;13.066;2024-03-07T06:28:18;46.90;;;24.50;;
14074;SDS011;12831;52.392;13.066;2024-03-07T06:31:00;48.95;;;26.90;;
14074;SDS011;12831;52.392;13.066;2024-03-07T06:47:25;51.53;;;25.85;;
14074;SDS011;12831;52.392;13.066;2024-03-07T06:49:52;56.67;;;25.73;;
14074;SDS011;12831;52.392;13.066;2024-03-07T06:52:28;46.83;;;26.90;;
14074;SDS011;12831;52.392;13.066;2024-03-07T06:55:02;50.25;;;23.95;;
14074;SDS011;12831;52.392;13.066;2024-03-07T06:57:36;43.92;;;23.15;;
14074;SDS011;12831;52.392;13.066;2024-03-07T07:00:03;38.97;;;21.75;;
14074;SDS011;12831;52.392;13.066;2024-03-07T07:02:40;51.63;;;26.55;;
14074;SDS011;12831;52.392;13.066;2024-03-07T07:05:28;51.25;;;23.20;;
14074;SDS011;12831;52.392;13.066;2024-03-07T07:08:02;44.53;;;24.63;;
14074;SDS011;12831;52.392;13.066;2024-03-07T07:13:58;46.10;;;25.38;;
14074;SDS011;12831;52.392;13.066;2024-03-07T07:16:26;53.92;;;25.45;;
14074;SDS011;12831;52.392;13.066;2024-03-07T07:18:53;42.30;;;23.30;;
14074;SDS011;12831;52.392;13.066;2024-03-07T07:21:27;46.25;;;23.15;;
14074;SDS011;12831;52.392;13.066;2024-03-07T07:23:54;39.90;;;21.45;;
14074;SDS011;12831;52.392;13.066;2024-03-07T07:26:23;42.33;;;23.23;;
14074;SDS011;12831;52.392;13.066;2024-03-07T07:28:59;42.97;;;23.42;;
14074;SDS011;12831;52.392;13.066;2024-03-07T07:31:36;46.65;;;21.42;;
14074;SDS011;12831;52.392;13.066;2024-03-07T07:34:11;33.65;;;19.85;;
14074;SDS011;12831;52.392;13.066;2024-03-07T07:36:39;34.35;;;20.92;;
14074;SDS011;12831;52.392;13.066;2024-03-07T07:39:10;36.47;;;20.50;;
14074;SDS011;12831;52.392;13.066;2024-03-07T07:41:51;32.70;;;17.00;;
14074;SDS011;12831;52.392;13.066;2024-03-07T07:44:18;27.83;;;14.75;;
14074;SDS011;12831;52.392;13.066;2024-03-07T07:46:59;35.78;;;17.27;;
14074;SDS011;12831;52.392;13.066;2024-03-07T07:49:35;34.25;;;17.20;;
14074;SDS011;12831;52.392;13.066;2024-03-07T07:52:01;31.63;;;15.07;;
14074;SDS011;12831;52.392;13.066;2024-03-07T07:54:28;25.58;;;14.20;;
14074;SDS011;12831;52.392;13.066;2024-03-07T07:57:04;25.38;;;12.70;;
14074;SDS011;12831;52.392;13.066;2024-03-07T07:59:33;18.73;;;9.80;;
14074;SDS011;12831;52.392;13.066;2024-03-07T08:02:00;24.95;;;13.60;;
14074;SDS011;12831;52.392;13.066;2024-03-07T08:04:28;25.88;;;13.23;;
14074;SDS011;12831;52.392;13.066;2024-03-07T08:06:56;23.25;;;11.00;;
14074;SDS011;12831;52.392;13.066;2024-03-07T08:09:26;22.23;;;11.88;;
14074;SDS011;12831;52.392;13.066;2024-03-07T08:12:07;22.30;;;12.57;;
14074;SDS011;12831;52.392;13.066;2024-03-07T08:14:40;21.65;;;12.80;;
14074;SDS011;12831;52.392;13.066;2024-03-07T08:17:07;21.40;;;12.85;;
14074;SDS011;12831;52.392;13.066;2024-03-07T08:19:33;19.30;;;11.55;;
14074;SDS011;12831;52.392;13.066;2024-03-07T08:22:17;22.33;;;10.68;;
14074;SDS011;12831;52.392;13.066;2024-03-07T08:24:46;21.92;;;12.07;;
14074;SDS011;12831;52.392;13.066;2024-03-07T08:27:15;20.48;;;10.40;;
14074;SDS011;12831;52.392;13.066;2024-03-07T08:29:42;21.73;;;11.68;;
14074;SDS011;12831;52.392;13.066;2024-03-07T08:32:09;20.73;;;12.30;;
14074;SDS011;12831;52.392;13.066;2024-03-07T08:34:35;20.10;;;10.20;;
14074;SDS011;12831;52.392;13.066;2024-03-07T08:37:02;19.08;;;9.10;;
14074;SDS011;12831;52.392;13.066;2024-03-07T08:39:31;19.58;;;11.07;;
14074;SDS011;12831;52.392;13.066;2024-03-07T08:42:01;17.27;;;8.60;;
14074;SDS011;12831;52.392;13.066;2024-03-07T08:44:33;17.85;;;11.63;;
14074;SDS011;12831;52.392;13.066;2024-03-07T08:47:05;16.77;;;9.60;;
14074;SDS011;12831;52.392;13.066;2024-03-07T08:49:36;18.73;;;10.13;;
14074;SDS011;12831;52.392;13.066;2024-03-07T08:52:05;14.13;;;7.68;;
14074;SDS011;12831;52.392;13.066;2024-03-07T08:54:32;14.50;;;8.00;;
14074;SDS011;12831;52.392;13.066;2024-03-07T08:56:59;15.45;;;8.48;;
14074;SDS011;12831;52.392;13.066;2024-03-07T08:59:40;19.75;;;8.57;;
14074;SDS011;12831;52.392;13.066;2024-03-07T09:02:12;17.05;;;9.68;;
14074;SDS011;12831;52.392;13.066;2024-03-07T09:04:41;14.35;;;8.75;;
14074;SDS011;12831;52.392;13.066;2024-03-07T09:07:08;16.17;;;8.38;;
14074;SDS011;12831;52.392;13.066;2024-03-07T09:09:48;16.25;;;9.25;;
14074;SDS011;12831;52.392;13.066;2024-03-07T09:12:15;16.63;;;8.82;;
14074;SDS011;12831;52.392;13.066;2024-03-07T09:14:42;14.40;;;8.30;;
14074;SDS011;12831;52.392;13.066;2024-03-07T09:17:18;18.13;;;9.45;;
14074;SDS011;12831;52.392;13.066;2024-03-07T09:19:44;16.63;;;10.70;;
14074;SDS011;12831;52.392;13.066;2024-03-07T09:22:13;16.38;;;8.82;;
14074;SDS011;12831;52.392;13.066;2024-03-07T09:24:41;13.50;;;7.97;;
14074;SDS011;12831;52.392;13.066;2024-03-07T09:27:08;17.42;;;7.93;;
14074;SDS011;12831;52.392;13.066;2024-03-07T09:29:35;13.32;;;8.88;;
14074;SDS011;12831;52.392;13.066;2024-03-07T09:32:13;17.15;;;8.77;;
14074;SDS011;12831;52.392;13.066;2024-03-07T09:34:41;17.25;;;10.25;;
14074;SDS011;12831;52.392;13.066;2024-03-07T09:37:22;15.70;;;8.13;;
14074;SDS011;12831;52.392;13.066;2024-03-07T09:40:19;14.55;;;7.75;;
14074;SDS011;12831;52.392;13.066;2024-03-07T09:42:56;16.70;;;9.20;;
14074;SDS011;12831;52.392;13.066;2024-03-07T09:45:38;12.25;;;6.50;;
14074;SDS011;12831;52.392;13.066;2024-03-07T09:48:19;17.10;;;9.00;;
14074;SDS011;12831;52.392;13.066;2024-03-07T09:50:46;13.20;;;8.38;;
14074;SDS011;12831;52.392;13.066;2024-03-07T09:53:19;16.60;;;7.72;;
14074;SDS011;12831;52.392;13.066;2024-03-07T09:55:46;13.70;;;8.73;;
14074;SDS011;12831;52.392;13.066;2024-03-07T09:58:14;14.82;;;8.40;;
14074;SDS011;12831;52.392;13.066;2024-03-07T10:01:00;14.63;;;9.52;;
14074;SDS011;12831;52.392;13.066;2024-03-07T10:03:29;14.15;;;7.97;;
14074;SDS011;12831;52.392;13.066;2024-03-07T10:05:56;13.90;;;9.38;;
14074;SDS011;12831;52.392;13.066;2024-03-07T10:08:22;12.82;;;8.55;;
14074;SDS011;12831;52.392;13.066;2024-03-07T10:10:50;11.10;;;6.75;;
14074;SDS011;12831;52.392;13.066;2024-03-07T10:13:21;16.08;;;8.23;;
14074;SDS011;12831;52.392;13.066;2024-03-07T10:15:56;16.33;;;8.50;;
14074;SDS011;12831;52.392;13.066;2024-03-07T10:18:43;16.88;;;8.32;;
14074;SDS011;12831;52.392;13.066;2024-03-07T10:21:21;12.50;;;7.07;;
14074;SDS011;12831;52.392;13.066;2024-03-07T10:24:05;15.00;;;8.07;;
14074;SDS011;12831;52.392;13.066;2024-03-07T10:26:57;15.88;;;7.32;;
14074;SDS011;12831;52.392;13.066;2024-03-07T10:29:29;15.02;;;8.50;;
14074;SDS011;12831;52.392;13.066;2024-03-07T10:32:18;11.93;;;7.63;;
14074;SDS011;12831;52.392;13.066;2024-03-07T10:35:00;15.32;;;9.45;;
14074;SDS011;12831;52.392;13.066;2024-03-07T10:37:38;13.77;;;8.38;;
14074;SDS011;12831;52.392;13.066;2024-03-07T10:40:06;14.38;;;8.63;;
14074;SDS011;12831;52.392;13.066;2024-03-07T10:42:44;11.98;;;7.07;;
14074;SDS011;12831;52.392;13.066;2024-03-07T10:45:19;14.25;;;7.78;;
14074;SDS011;12831;52.392;13.066;2024-03-07T10:47:52;15.95;;;9.40;;
14074;SDS011;12831;52.392;13.066;2024-03-07T10:56:07;9.50;;;5.18;;
14074;SDS011;12831;52.392;13.066;2024-03-07T11:01:23;14.95;;;8.15;;
14074;SDS011;12831;52.392;13.066;2024-03-07T11:03:50;12.80;;;6.78;;
14074;SDS011;12831;52.392;13.066;2024-03-07T11:08:52;15.98;;;8.63;;
14074;SDS011;12831;52.392;13.066;2024-03-07T11:11:25;13.50;;;7.97;;
14074;SDS011;12831;52.392;13.066;2024-03-07T11:14:04;14.43;;;9.13;;
14074;SDS011;12831;52.392;13.066;2024-03-07T11:16:33;11.52;;;6.60;;
14074;SDS011;12831;52.392;13.066;2024-03-07T11:22:03;12.45;;;6.50;;
14074;SDS011;12831;52.392;13.066;2024-03-07T11:25:02;16.73;;;9.35;;
14074;SDS011;12831;52.392;13.066;2024-03-07T11:30:24;17.25;;;9.05;;
14074;SDS011;12831;52.392;13.066;2024-03-07T11:33:09;17.30;;;8.98;;
14074;SDS011;12831;52.392;13.066;2024-03-07T11:35:42;16.30;;;9.45;;
14074;SDS011;12831;52.392;13.066;2024-03-07T11:38:16;18.83;;;8.52;;
14074;SDS011;12831;52.392;13.066;2024-03-07T11:40:53;11.77;;;7.47;;
14074;SDS011;12831;52.392;13.066;2024-03-07T11:43:29;17.63;;;8.10;;
14074;SDS011;12831;52.392;13.066;2024-03-07T11:46:19;14.75;;;8.27;;
14074;SDS011;12831;52.392;13.066;2024-03-07T11:49:01;15.70;;;8.65;;
14074;SDS011;12831;52.392;13.066;2024-03-07T11:51:34;20.52;;;9.63;;
14074;SDS011;12831;52.392;13.066;2024-03-07T11:54:08;16.27;;;9.85;;
14074;SDS011;12831;52.392;13.066;2024-03-07T11:56:44;12.75;;;8.30;;
14074;SDS011;12831;52.392;13.066;2024-03-07T11:59:18;13.65;;;8.82;;
14074;SDS011;12831;52.392;13.066;2024-03-07T12:02:03;12.90;;;8.00;;
14074;SDS011;12831;52.392;13.066;2024-03-07T12:04:45;25.83;;;9.27;;
14074;SDS011;12831;52.392;13.066;2024-03-07T12:07:26;19.40;;;11.35;;
14074;SDS011;12831;52.392;13.066;2024-03-07T12:10:12;15.27;;;8.23;;
14074;SDS011;12831;52.392;13.066;2024-03-07T12:16:05;13.75;;;8.90;;
14074;SDS011;12831;52.392;13.066;2024-03-07T12:18:37;14.57;;;8.65;;
14074;SDS011;12831;52.392;13.066;2024-03-07T12:23:47;16.98;;;8.35;;
14074;SDS011;12831;52.392;13.066;2024-03-07T12:26:19;17.83;;;8.50;;
14074;SDS011;12831;52.392;13.066;2024-03-07T12:29:07;14.73;;;7.85;;
14074;SDS011;12831;52.392;13.066;2024-03-07T12:31:43;14.23;;;8.68;;
14074;SDS011;12831;52.392;13.066;2024-03-07T12:34:09;13.10;;;7.18;;
14074;SDS011;12831;52.392;13.066;2024-03-07T12:36:59;16.95;;;7.63;;
14074;SDS011;12831;52.392;13.066;2024-03-07T13:43:57;16.50;;;10.20;;
14074;SDS011;12831;52.392;13.066;2024-03-07T13:46:40;14.38;;;8.77;;
14074;SDS011;12831;52.392;13.066;2024-03-07T13:49:18;18.45;;;10.23;;
14074;SDS011;12831;52.392;13.066;2024-03-07T14:32:00;17.25;;;9.63;;
14074;SDS011;12831;52.392;13.066;2024-03-07T14:37:09;17.23;;;7.63;;
14074;SDS011;12831;52.392;13.066;2024-03-07T14:39:39;15.65;;;9.68;;
14074;SDS011;12831;52.392;13.066;2024-03-07T14:42:07;15.07;;;8.90;;
14074;SDS011;12831;52.392;13.066;2024-03-07T14:44:39;14.73;;;9.57;;
14074;SDS011;12831;52.392;13.066;2024-03-07T14:47:14;15.05;;;9.40;;
14074;SDS011;12831;52.392;13.066;2024-03-07T14:49:53;13.18;;;7.80;;
14074;SDS011;12831;52.392;13.066;2024-03-07T14:52:19;14.20;;;8.77;;
14074;SDS011;12831;52.392;13.066;2024-03-07T14:57:55;16.25;;;10.18;;
14074;SDS011;12831;52.392;13.066;2024-03-07T15:00:21;13.35;;;8.55;;
14074;SDS011;12831;52.392;13.066;2024-03-07T15:03:02;18.67;;;10.80;;
14074;SDS011;12831;52.392;13.066;2024-03-07T15:05:28;17.40;;;9.85;;
14074;SDS011;12831;52.392;13.066;2024-03-07T15:07:54;16.80;;;10.00;;
14074;SDS011;12831;52.392;13.066;2024-03-07T15:10:34;24.55;;;11.02;;
14074;SDS011;12831;52.392;13.066;2024-03-07T15:13:19;16.50;;;10.50;;
14074;SDS011;12831;52.392;13.066;2024-03-07T15:15:46;15.38;;;9.18;;
14074;SDS011;12831;52.392;13.066;2024-03-07T15:18:13;15.13;;;7.68;;
14074;SDS011;12831;52.392;13.066;2024-03-07T15:20:40;14.18;;;8.40;;
14074;SDS011;12831;52.392;13.066;2024-03-07T15:23:11;16.02;;;9.35;;
14074;SDS011;12831;52.392;13.066;2024-03-07T15:28:28;11.68;;;6.55;;
14074;SDS011;12831;52.392;13.066;2024-03-07T15:31:06;17.23;;;10.30;;
14074;SDS011;12831;52.392;13.066;2024-03-07T15:33:35;16.65;;;10.13;;
14074;SDS011;12831;52.392;13.066;2024-03-07T15:36:15;15.63;;;8.63;;
14074;SDS011;12831;52.392;13.066;2024-03-07T15:38:45;19.33;;;9.10;;
14074;SDS011;12831;52.392;13.066;2024-03-07T15:41:22;17.70;;;8.98;;
14074;SDS011;12831;52.392;13.066;2024-03-07T15:43:49;13.38;;;8.50;;
14074;SDS011;12831;52.392;13.066;2024-03-07T15:46:16;17.23;;;10.40;;
14074;SDS011;12831;52.392;13.066;2024-03-07T15:48:44;16.05;;;8.35;;
14074;SDS011;12831;52.392;13.066;2024-03-07T15:51:13;14.75;;;10.13;;
14074;SDS011;12831;52.392;13.066;2024-03-07T15:53:52;14.63;;;8.73;;
14074;SDS011;12831;52.392;13.066;2024-03-07T15:56:21;14.50;;;9.85;;
14074;SDS011;12831;52.392;13.066;2024-03-07T15:58:48;16.52;;;9.52;;
14074;SDS011;12831;52.392;13.066;2024-03-07T16:01:18;17.23;;;8.90;;
14074;SDS011;12831;52.392;13.066;2024-03-07T16:03:47;16.40;;;9.90;;
14074;SDS011;12831;52.392;13.066;2024-03-07T16:06:13;20.85;;;10.90;;
14074;SDS011;12831;52.392;13.066;2024-03-07T16:08:44;16.90;;;10.82;;
14074;SDS011;12831;52.392;13.066;2024-03-07T16:11:11;20.23;;;10.15;;
14074;SDS011;12831;52.392;13.066;2024-03-07T16:13:43;17.30;;;9.85;;
14074;SDS011;12831;52.392;13.066;2024-03-07T16:16:10;19.23;;;10.55;;
14074;SDS011;12831;52.392;13.066;2024-03-07T16:18:36;18.55;;;11.38;;
14074;SDS011;12831;52.392;13.066;2024-03-07T16:21:05;17.73;;;10.18;;
14074;SDS011;12831;52.392;13.066;2024-03-07T16:23:36;15.15;;;10.35;;
14074;SDS011;12831;52.392;13.066;2024-03-07T16:26:08;16.13;;;10.18;;
14074;SDS011;12831;52.392;13.066;2024-03-07T16:28:39;21.20;;;11.00;;
14074;SDS011;12831;52.392;13.066;2024-03-07T16:31:25;13.93;;;8.48;;
14074;SDS011;12831;52.392;13.066;2024-03-07T16:34:05;13.95;;;8.85;;
14074;SDS011;12831;52.392;13.066;2024-03-07T16:36:32;17.08;;;10.18;;
14074;SDS011;12831;52.392;13.066;2024-03-07T16:39:00;17.02;;;10.07;;
14074;SDS011;12831;52.392;13.066;2024-03-07T16:41:34;16.02;;;10.35;;
14074;SDS011;12831;52.392;13.066;2024-03-07T16:44:14;14.70;;;8.88;;
14074;SDS011;12831;52.392;13.066;2024-03-07T16:46:41;17.33;;;9.82;;
14074;SDS011;12831;52.392;13.066;2024-03-07T16:49:08;18.55;;;10.35;;
14074;SDS011;12831;52.392;13.066;2024-03-07T16:51:35;20.02;;;9.90;;
14074;SDS011;12831;52.392;13.066;2024-03-07T16:54:26;20.48;;;8.13;;
14074;SDS011;12831;52.392;13.066;2024-03-07T16:56:55;14.63;;;8.88;;
14074;SDS011;12831;52.392;13.066;2024-03-07T16:59:32;16.90;;;9.45;;
14074;SDS011;12831;52.392;13.066;2024-03-07T17:02:03;14.32;;;8.48;;
14074;SDS011;12831;52.392;13.066;2024-03-07T17:04:48;15.88;;;9.93;;
14074;SDS011;12831;52.392;13.066;2024-03-07T17:07:16;16.50;;;9.35;;
14074;SDS011;12831;52.392;13.066;2024-03-07T17:10:06;17.67;;;9.75;;
14074;SDS011;12831;52.392;13.066;2024-03-07T17:12:33;23.63;;;10.02;;